sensor_id;sensor_type;location;lat;lon;timestamp;pressure;altitude;pressure_sealevel;temperature;humidity
21359;BME280;13506;50.852;20.632;2024-03-23T00:53:53;59191.09;;;-143.89;46.34
21359;BME280;13506;50.852;20.632;2024-03-23T00:56:21;59212.88;;;-143.89;46.85
21359;BME280;13506;50.852;20.632;2024-03-23T00:58:48;59216.84;;;-143.89;46.98
21359;BME280;13506;50.852;20.632;2024-03-23T01:01:16;59208.94;;;-143.89;46.39
21359;BME280;13506;50.852;20.632;2024-03-23T01:03:43;59197.03;;;-143.89;46.50
21359;BME280;13506;50.852;20.632;2024-03-23T01:06:11;59216.84;;;-143.89;47.13
21359;BME280;13506;50.852;20.632;2024-03-23T01:08:38;59210.91;;;-143.89;46.62
21359;BME280;13506;50.852;20.632;2024-03-23T01:11:07;59204.97;;;-143.89;46.70
21359;BME280;13506;50.852;20.632;2024-03-23T01:13:34;59204.97;;;-143.89;47.14
21359;BME280;13506;50.852;20.632;2024-03-23T01:16:03;59208.94;;;-143.89;46.56
21359;BME280;13506;50.852;20.632;2024-03-23T01:18:30;59210.91;;;-143.89;47.23
21359;BME280;13506;50.852;20.632;2024-03-23T01:20:59;59193.09;;;-143.89;47.27
21359;BME280;13506;50.852;20.632;2024-03-23T01:23:26;59191.09;;;-143.89;47.10
21359;BME280;13506;50.852;20.632;2024-03-23T01:25:54;59189.13;;;-143.89;47.25
21359;BME280;13506;50.852;20.632;2024-03-23T01:28:22;59201.00;;;-143.89;47.61
21359;BME280;13506;50.852;20.632;2024-03-23T01:30:50;59216.84;;;-143.89;47.39
21359;BME280;13506;50.852;20.632;2024-03-23T01:33:17;59179.22;;;-143.89;47.29
21359;BME280;13506;50.852;20.632;2024-03-23T01:35:45;59179.22;;;-143.89;47.55
21359;BME280;13506;50.852;20.632;2024-03-23T01:38:12;59193.09;;;-143.89;47.58
21359;BME280;13506;50.852;20.632;2024-03-23T01:40:40;59175.25;;;-143.89;47.93
21359;BME280;13506;50.852;20.632;2024-03-23T01:43:08;59210.91;;;-143.89;48.11
21359;BME280;13506;50.852;20.632;2024-03-23T01:45:37;59193.09;;;-143.89;48.07
21359;BME280;13506;50.852;20.632;2024-03-23T01:48:05;59224.75;;;-143.89;48.78
21359;BME280;13506;50.852;20.632;2024-03-23T01:50:33;59201.00;;;-143.89;49.20
21359;BME280;13506;50.852;20.632;2024-03-23T01:53:01;59201.00;;;-143.89;48.88
21359;BME280;13506;50.852;20.632;2024-03-23T01:55:32;59191.09;;;-143.89;49.41
21359;BME280;13506;50.852;20.632;2024-03-23T01:57:59;59183.19;;;-143.89;49.39
21359;BME280;13506;50.852;20.632;2024-03-23T02:00:27;59208.94;;;-143.89;49.46
21359;BME280;13506;50.852;20.632;2024-03-23T02:02:56;59202.97;;;-143.89;49.97
21359;BME280;13506;50.852;20.632;2024-03-23T02:05:23;59222.78;;;-143.89;50.01
21359;BME280;13506;50.852;20.632;2024-03-23T02:07:51;59212.88;;;-143.89;50.54
21359;BME280;13506;50.852;20.632;2024-03-23T02:10:19;59216.84;;;-143.89;50.33
21359;BME280;13506;50.852;20.632;2024-03-23T02:12:46;59210.91;;;-143.89;50.44
21359;BME280;13506;50.852;20.632;2024-03-23T02:15:14;59232.69;;;-143.89;50.75
21359;BME280;13506;50.852;20.632;2024-03-23T02:17:41;59206.94;;;-143.89;50.90
21359;BME280;13506;50.852;20.632;2024-03-23T02:20:12;59222.78;;;-143.89;50.94
21359;BME280;13506;50.852;20.632;2024-03-23T02:22:39;59214.88;;;-143.89;51.44
21359;BME280;13506;50.852;20.632;2024-03-23T02:25:08;59220.81;;;-143.89;51.31
21359;BME280;13506;50.852;20.632;2024-03-23T02:27:35;59201.00;;;-143.89;51.74
21359;BME280;13506;50.852;20.632;2024-03-23T02:30:06;59206.94;;;-143.89;51.63
21359;BME280;13506;50.852;20.632;2024-03-23T02:32:33;59218.81;;;-143.89;52.29
21359;BME280;13506;50.852;20.632;2024-03-23T02:35:01;59236.66;;;-143.89;52.21
21359;BME280;13506;50.852;20.632;2024-03-23T02:37:28;59252.50;;;-143.89;52.36
21359;BME280;13506;50.852;20.632;2024-03-23T02:39:56;59204.97;;;-143.89;52.26
21359;BME280;13506;50.852;20.632;2024-03-23T02:42:24;59201.00;;;-143.89;53.04
21359;BME280;13506;50.852;20.632;2024-03-23T02:44:52;59206.94;;;-143.89;52.76
21359;BME280;13506;50.852;20.632;2024-03-23T02:47:19;59224.75;;;-143.89;53.12
21359;BME280;13506;50.852;20.632;2024-03-23T02:49:47;59208.94;;;-143.89;53.55
21359;BME280;13506;50.852;20.632;2024-03-23T02:52:14;59236.66;;;-143.89;53.53
21359;BME280;13506;50.852;20.632;2024-03-23T02:54:42;59212.88;;;-143.89;53.65
21359;BME280;13506;50.852;20.632;2024-03-23T02:57:11;59232.69;;;-143.89;53.67
21359;BME280;13506;50.852;20.632;2024-03-23T02:59:40;59238.63;;;-143.89;54.08
21359;BME280;13506;50.852;20.632;2024-03-23T03:02:08;59204.97;;;-143.89;53.87
21359;BME280;13506;50.852;20.632;2024-03-23T03:04:35;59236.66;;;-143.89;54.02
21359;BME280;13506;50.852;20.632;2024-03-23T03:07:03;59236.66;;;-143.89;54.29
21359;BME280;13506;50.852;20.632;2024-03-23T03:09:30;59252.50;;;-143.89;54.09
21359;BME280;13506;50.852;20.632;2024-03-23T03:11:58;59216.84;;;-143.89;54.23
21359;BME280;13506;50.852;20.632;2024-03-23T03:14:26;59189.13;;;-143.89;53.91
21359;BME280;13506;50.852;20.632;2024-03-23T03:16:54;59232.69;;;-143.89;54.16
21359;BME280;13506;50.852;20.632;2024-03-23T03:19:22;59226.75;;;-143.89;54.67
21359;BME280;13506;50.852;20.632;2024-03-23T03:21:49;59204.97;;;-143.89;54.75
21359;BME280;13506;50.852;20.632;2024-03-23T03:24:18;59236.66;;;-143.89;54.96
21359;BME280;13506;50.852;20.632;2024-03-23T03:26:45;59232.69;;;-143.89;55.04
21359;BME280;13506;50.852;20.632;2024-03-23T03:29:13;59252.50;;;-143.89;55.32
21359;BME280;13506;50.852;20.632;2024-03-23T03:31:40;59228.72;;;-143.89;55.17
21359;BME280;13506;50.852;20.632;2024-03-23T03:34:09;59246.56;;;-143.89;55.28
21359;BME280;13506;50.852;20.632;2024-03-23T03:36:36;59224.75;;;-143.89;55.48
21359;BME280;13506;50.852;20.632;2024-03-23T03:39:04;59236.66;;;-143.89;55.40
21359;BME280;13506;50.852;20.632;2024-03-23T03:41:32;59228.72;;;-143.89;55.52
21359;BME280;13506;50.852;20.632;2024-03-23T03:43:59;59238.63;;;-143.89;55.43
21359;BME280;13506;50.852;20.632;2024-03-23T03:46:28;59248.53;;;-143.89;55.59
21359;BME280;13506;50.852;20.632;2024-03-23T03:48:56;59232.69;;;-143.89;55.35
21359;BME280;13506;50.852;20.632;2024-03-23T03:51:26;59208.94;;;-143.89;55.63
21359;BME280;13506;50.852;20.632;2024-03-23T03:53:54;59214.88;;;-143.89;55.67
21359;BME280;13506;50.852;20.632;2024-03-23T03:56:21;59252.50;;;-143.89;55.55
21359;BME280;13506;50.852;20.632;2024-03-23T03:58:50;59228.72;;;-143.89;55.63
21359;BME280;13506;50.852;20.632;2024-03-23T04:01:17;59236.66;;;-143.89;55.62
21359;BME280;13506;50.852;20.632;2024-03-23T04:03:45;59226.75;;;-143.89;55.69
21359;BME280;13506;50.852;20.632;2024-03-23T04:06:19;59246.56;;;-143.89;55.90
21359;BME280;13506;50.852;20.632;2024-03-23T04:08:48;59260.41;;;-143.89;56.15
21359;BME280;13506;50.852;20.632;2024-03-23T04:11:15;59240.59;;;-143.89;55.66
21359;BME280;13506;50.852;20.632;2024-03-23T04:13:43;59222.78;;;-143.89;56.04
21359;BME280;13506;50.852;20.632;2024-03-23T04:16:11;59260.41;;;-143.89;56.12
21359;BME280;13506;50.852;20.632;2024-03-23T04:18:38;59244.56;;;-143.89;56.39
21359;BME280;13506;50.852;20.632;2024-03-23T04:21:05;59268.34;;;-143.89;56.49
21359;BME280;13506;50.852;20.632;2024-03-23T04:23:33;59248.53;;;-143.89;56.64
21359;BME280;13506;50.852;20.632;2024-03-23T04:26:04;59244.56;;;-143.89;56.57
21359;BME280;13506;50.852;20.632;2024-03-23T04:28:32;59218.81;;;-143.89;56.47
21359;BME280;13506;50.852;20.632;2024-03-23T04:31:03;59242.59;;;-143.89;56.75
21359;BME280;13506;50.852;20.632;2024-03-23T04:33:32;59240.59;;;-143.89;56.77
21359;BME280;13506;50.852;20.632;2024-03-23T04:35:59;59266.34;;;-143.89;56.97
21359;BME280;13506;50.852;20.632;2024-03-23T04:38:26;59240.59;;;-143.89;56.84
21359;BME280;13506;50.852;20.632;2024-03-23T04:40:55;59248.53;;;-143.89;57.13
21359;BME280;13506;50.852;20.632;2024-03-23T04:43:25;59246.56;;;-143.89;56.99
21359;BME280;13506;50.852;20.632;2024-03-23T04:45:53;59232.69;;;-143.89;57.38
21359;BME280;13506;50.852;20.632;2024-03-23T04:48:22;59258.44;;;-143.89;57.57
21359;BME280;13506;50.852;20.632;2024-03-23T04:50:54;59260.41;;;-143.89;57.58
21359;BME280;13506;50.852;20.632;2024-03-23T04:53:21;59222.78;;;-143.89;57.67
21359;BME280;13506;50.852;20.632;2024-03-23T04:55:50;59224.75;;;-143.89;58.08
21359;BME280;13506;50.852;20.632;2024-03-23T04:58:16;59256.44;;;-143.89;58.10
21359;BME280;13506;50.852;20.632;2024-03-23T05:00:46;59248.53;;;-143.89;58.49
21359;BME280;13506;50.852;20.632;2024-03-23T05:03:13;59236.66;;;-143.89;58.42
21359;BME280;13506;50.852;20.632;2024-03-23T05:05:42;59244.56;;;-143.89;58.50
21359;BME280;13506;50.852;20.632;2024-03-23T05:08:08;59256.44;;;-143.89;58.73
21359;BME280;13506;50.852;20.632;2024-03-23T05:10:36;59264.38;;;-143.89;58.88
21359;BME280;13506;50.852;20.632;2024-03-23T05:13:03;59268.34;;;-143.89;59.64
21359;BME280;13506;50.852;20.632;2024-03-23T05:15:31;59256.44;;;-143.89;59.44
21359;BME280;13506;50.852;20.632;2024-03-23T05:17:59;59252.50;;;-143.89;59.56
21359;BME280;13506;50.852;20.632;2024-03-23T05:20:27;59256.44;;;-143.89;59.56
21359;BME280;13506;50.852;20.632;2024-03-23T05:22:55;59268.34;;;-143.89;59.65
21359;BME280;13506;50.852;20.632;2024-03-23T05:25:23;59264.38;;;-143.89;59.87
21359;BME280;13506;50.852;20.632;2024-03-23T05:27:50;59262.38;;;-143.89;60.45
21359;BME280;13506;50.852;20.632;2024-03-23T05:30:20;59256.44;;;-143.89;60.28
21359;BME280;13506;50.852;20.632;2024-03-23T05:32:46;59284.16;;;-143.89;60.30
21359;BME280;13506;50.852;20.632;2024-03-23T05:35:16;59254.47;;;-143.89;60.53
21359;BME280;13506;50.852;20.632;2024-03-23T05:37:42;59288.13;;;-143.89;60.90
21359;BME280;13506;50.852;20.632;2024-03-23T05:40:12;59268.34;;;-143.89;61.12
21359;BME280;13506;50.852;20.632;2024-03-23T05:42:42;59256.44;;;-143.89;61.38
21359;BME280;13506;50.852;20.632;2024-03-23T05:45:10;59262.38;;;-143.89;61.82
21359;BME280;13506;50.852;20.632;2024-03-23T05:47:37;59262.38;;;-143.89;62.09
21359;BME280;13506;50.852;20.632;2024-03-23T05:50:06;59280.22;;;-143.89;62.42
21359;BME280;13506;50.852;20.632;2024-03-23T05:52:34;59280.22;;;-143.89;62.41
21359;BME280;13506;50.852;20.632;2024-03-23T05:55:02;59274.28;;;-143.89;62.09
21359;BME280;13506;50.852;20.632;2024-03-23T05:57:29;59282.19;;;-143.89;62.01
21359;BME280;13506;50.852;20.632;2024-03-23T05:59:58;59286.16;;;-143.89;61.99
21359;BME280;13506;50.852;20.632;2024-03-23T06:02:25;59272.28;;;-143.89;63.31
21359;BME280;13506;50.852;20.632;2024-03-23T06:04:53;59300.00;;;-143.89;62.88
21359;BME280;13506;50.852;20.632;2024-03-23T06:07:19;59260.41;;;-143.89;62.95
21359;BME280;13506;50.852;20.632;2024-03-23T06:09:49;59264.38;;;-143.89;62.92
21359;BME280;13506;50.852;20.632;2024-03-23T06:12:17;59268.34;;;-143.89;62.64
21359;BME280;13506;50.852;20.632;2024-03-23T06:14:45;59264.38;;;-143.89;62.50
21359;BME280;13506;50.852;20.632;2024-03-23T06:17:12;59276.25;;;-143.89;63.30
21359;BME280;13506;50.852;20.632;2024-03-23T06:19:40;59284.16;;;-143.89;62.92
21359;BME280;13506;50.852;20.632;2024-03-23T06:22:07;59270.31;;;-143.89;62.64
21359;BME280;13506;50.852;20.632;2024-03-23T06:24:35;59256.44;;;-143.89;62.72
21359;BME280;13506;50.852;20.632;2024-03-23T06:27:03;59264.38;;;-143.89;62.03
21359;BME280;13506;50.852;20.632;2024-03-23T06:29:31;59246.56;;;-143.89;62.12
21359;BME280;13506;50.852;20.632;2024-03-23T06:31:59;59256.44;;;-143.89;61.77
21359;BME280;13506;50.852;20.632;2024-03-23T06:34:27;59244.56;;;-143.89;61.41
21359;BME280;13506;50.852;20.632;2024-03-23T06:36:54;59244.56;;;-143.89;61.19
21359;BME280;13506;50.852;20.632;2024-03-23T06:39:22;59252.50;;;-143.89;60.87
21359;BME280;13506;50.852;20.632;2024-03-23T06:41:53;59250.50;;;-143.89;61.08
21359;BME280;13506;50.852;20.632;2024-03-23T06:44:23;59276.25;;;-143.89;61.26
21359;BME280;13506;50.852;20.632;2024-03-23T06:46:50;59296.06;;;-143.89;61.10
21359;BME280;13506;50.852;20.632;2024-03-23T06:49:17;59264.38;;;-143.89;61.13
21359;BME280;13506;50.852;20.632;2024-03-23T06:51:45;59270.31;;;-143.89;61.58
21359;BME280;13506;50.852;20.632;2024-03-23T06:54:12;59276.25;;;-143.89;61.28
21359;BME280;13506;50.852;20.632;2024-03-23T06:56:41;59280.22;;;-143.89;61.89
21359;BME280;13506;50.852;20.632;2024-03-23T06:59:08;59268.34;;;-143.89;63.28
21359;BME280;13506;50.852;20.632;2024-03-23T07:01:37;59242.59;;;-143.89;63.02
21359;BME280;13506;50.852;20.632;2024-03-23T07:04:05;59268.34;;;-143.89;62.84
21359;BME280;13506;50.852;20.632;2024-03-23T07:06:32;59262.38;;;-143.89;62.77
21359;BME280;13506;50.852;20.632;2024-03-23T07:08:59;59260.41;;;-143.89;62.52
21359;BME280;13506;50.852;20.632;2024-03-23T07:11:27;59250.50;;;-143.89;62.53
21359;BME280;13506;50.852;20.632;2024-03-23T07:13:54;59256.44;;;-143.89;62.53
21359;BME280;13506;50.852;20.632;2024-03-23T07:16:22;59242.59;;;-143.89;62.85
21359;BME280;13506;50.852;20.632;2024-03-23T07:18:52;59260.41;;;-143.89;62.09
21359;BME280;13506;50.852;20.632;2024-03-23T07:21:19;59256.44;;;-143.89;62.22
21359;BME280;13506;50.852;20.632;2024-03-23T07:23:47;59258.44;;;-143.89;61.99
21359;BME280;13506;50.852;20.632;2024-03-23T07:26:15;59256.44;;;-143.89;61.87
21359;BME280;13506;50.852;20.632;2024-03-23T07:28:44;59256.44;;;-143.89;62.11
21359;BME280;13506;50.852;20.632;2024-03-23T07:31:13;59262.38;;;-143.89;62.14
21359;BME280;13506;50.852;20.632;2024-03-23T07:33:45;59260.41;;;-143.89;61.94
21359;BME280;13506;50.852;20.632;2024-03-23T07:36:14;59262.38;;;-143.89;61.91
21359;BME280;13506;50.852;20.632;2024-03-23T07:38:42;59278.22;;;-143.89;61.89
21359;BME280;13506;50.852;20.632;2024-03-23T07:41:13;59226.75;;;-143.89;62.13
21359;BME280;13506;50.852;20.632;2024-03-23T07:43:41;59248.53;;;-143.89;61.51
21359;BME280;13506;50.852;20.632;2024-03-23T07:46:10;59216.84;;;-143.89;61.90
21359;BME280;13506;50.852;20.632;2024-03-23T07:48:37;59264.38;;;-143.89;62.06
21359;BME280;13506;50.852;20.632;2024-03-23T07:51:07;59268.34;;;-143.89;61.94
21359;BME280;13506;50.852;20.632;2024-03-23T07:53:36;59272.28;;;-143.89;62.23
21359;BME280;13506;50.852;20.632;2024-03-23T07:56:06;59276.25;;;-143.89;62.71
21359;BME280;13506;50.852;20.632;2024-03-23T07:58:34;59276.25;;;-143.89;63.03
21359;BME280;13506;50.852;20.632;2024-03-23T08:01:07;59224.75;;;-143.89;64.74
21359;BME280;13506;50.852;20.632;2024-03-23T08:03:35;59256.44;;;-143.89;63.57
21359;BME280;13506;50.852;20.632;2024-03-23T08:06:09;59254.47;;;-143.89;63.86
21359;BME280;13506;50.852;20.632;2024-03-23T08:08:39;59272.28;;;-143.89;62.80
21359;BME280;13506;50.852;20.632;2024-03-23T08:11:07;59288.13;;;-143.89;63.17
21359;BME280;13506;50.852;20.632;2024-03-23T08:13:35;59236.66;;;-143.89;62.45
21359;BME280;13506;50.852;20.632;2024-03-23T08:16:04;59276.25;;;-143.89;62.45
21359;BME280;13506;50.852;20.632;2024-03-23T08:18:32;59212.88;;;-143.89;62.60
21359;BME280;13506;50.852;20.632;2024-03-23T08:21:01;59258.44;;;-143.89;63.17
21359;BME280;13506;50.852;20.632;2024-03-23T08:23:30;59278.22;;;-143.89;63.42
21359;BME280;13506;50.852;20.632;2024-03-23T08:26:02;59252.50;;;-143.89;63.19
21359;BME280;13506;50.852;20.632;2024-03-23T08:28:30;59254.47;;;-143.89;62.92
21359;BME280;13506;50.852;20.632;2024-03-23T08:31:00;59284.16;;;-143.89;63.09
21359;BME280;13506;50.852;20.632;2024-03-23T08:33:28;59252.50;;;-143.89;62.47
21359;BME280;13506;50.852;20.632;2024-03-23T08:35:57;59248.53;;;-143.89;62.73
21359;BME280;13506;50.852;20.632;2024-03-23T08:38:26;59234.66;;;-143.89;62.49
21359;BME280;13506;50.852;20.632;2024-03-23T08:40:57;59264.38;;;-143.89;63.03
21359;BME280;13506;50.852;20.632;2024-03-23T08:43:26;59222.78;;;-143.89;62.56
21359;BME280;13506;50.852;20.632;2024-03-23T08:45:54;59212.88;;;-143.89;61.87
21359;BME280;13506;50.852;20.632;2024-03-23T08:48:21;59248.53;;;-143.89;61.37
21359;BME280;13506;50.852;20.632;2024-03-23T08:50:59;59232.69;;;-143.89;61.88
21359;BME280;13506;50.852;20.632;2024-03-23T08:53:28;59218.81;;;-143.89;61.86
21359;BME280;13506;50.852;20.632;2024-03-23T08:55:57;59202.97;;;-143.89;60.43
21359;BME280;13506;50.852;20.632;2024-03-23T08:58:26;59204.97;;;-143.89;60.30
21359;BME280;13506;50.852;20.632;2024-03-23T09:00:56;59199.03;;;-143.89;58.92
21359;BME280;13506;50.852;20.632;2024-03-23T09:03:24;59228.72;;;-143.89;58.37
21359;BME280;13506;50.852;20.632;2024-03-23T09:05:52;59167.34;;;-143.89;57.45
21359;BME280;13506;50.852;20.632;2024-03-23T09:08:21;59171.31;;;-143.89;56.77
21359;BME280;13506;50.852;20.632;2024-03-23T09:10:49;59135.66;;;-143.89;55.01
21359;BME280;13506;50.852;20.632;2024-03-23T09:13:16;59153.47;;;-143.89;53.98
21359;BME280;13506;50.852;20.632;2024-03-23T09:15:48;59185.16;;;-143.89;53.34
21359;BME280;13506;50.852;20.632;2024-03-23T09:18:16;59141.59;;;-143.89;52.33
21359;BME280;13506;50.852;20.632;2024-03-23T09:20:44;59117.84;;;-143.89;51.32
21359;BME280;13506;50.852;20.632;2024-03-23T09:23:11;59117.84;;;-143.89;50.45
21359;BME280;13506;50.852;20.632;2024-03-23T09:25:40;59103.97;;;-143.89;49.60
21359;BME280;13506;50.852;20.632;2024-03-23T09:28:08;59078.22;;;-143.89;48.17
21359;BME280;13506;50.852;20.632;2024-03-23T09:30:36;59082.19;;;-143.89;47.64
21359;BME280;13506;50.852;20.632;2024-03-23T09:33:10;59107.94;;;-143.89;48.60
21359;BME280;13506;50.852;20.632;2024-03-23T09:35:39;59058.44;;;-143.89;47.79
21359;BME280;13506;50.852;20.632;2024-03-23T09:38:06;59103.97;;;-143.89;46.44
21359;BME280;13506;50.852;20.632;2024-03-23T09:40:39;59094.06;;;-143.89;45.60
21359;BME280;13506;50.852;20.632;2024-03-23T09:43:07;59046.53;;;-143.89;45.83
21359;BME280;13506;50.852;20.632;2024-03-23T09:45:38;59042.59;;;-143.89;44.22
21359;BME280;13506;50.852;20.632;2024-03-23T09:48:06;59094.06;;;-143.89;42.98
21359;BME280;13506;50.852;20.632;2024-03-23T09:50:38;59030.72;;;-143.89;42.86
21359;BME280;13506;50.852;20.632;2024-03-23T09:53:07;59070.31;;;-143.89;42.58
21359;BME280;13506;50.852;20.632;2024-03-23T09:55:35;59046.53;;;-143.89;41.15
21359;BME280;13506;50.852;20.632;2024-03-23T09:58:03;59006.94;;;-143.89;42.19
21359;BME280;13506;50.852;20.632;2024-03-23T10:00:31;59034.66;;;-143.89;41.53
21359;BME280;13506;50.852;20.632;2024-03-23T10:02:59;58995.06;;;-143.89;40.82
21359;BME280;13506;50.852;20.632;2024-03-23T10:05:29;59006.94;;;-143.89;40.50
21359;BME280;13506;50.852;20.632;2024-03-23T10:07:59;58975.25;;;-143.89;39.30
21359;BME280;13506;50.852;20.632;2024-03-23T10:10:26;58983.19;;;-143.89;39.92
21359;BME280;13506;50.852;20.632;2024-03-23T10:12:55;58975.25;;;-143.89;38.33
21359;BME280;13506;50.852;20.632;2024-03-23T10:15:23;58967.34;;;-143.89;38.99
21359;BME280;13506;50.852;20.632;2024-03-23T10:17:52;58957.44;;;-143.89;38.11
21359;BME280;13506;50.852;20.632;2024-03-23T10:20:20;58983.19;;;-143.89;40.08
21359;BME280;13506;50.852;20.632;2024-03-23T10:22:49;58963.38;;;-143.89;38.41
21359;BME280;13506;50.852;20.632;2024-03-23T10:25:22;58919.81;;;-143.89;36.59
21359;BME280;13506;50.852;20.632;2024-03-23T10:27:59;58925.75;;;-143.89;36.98
21359;BME280;13506;50.852;20.632;2024-03-23T10:30:28;58929.72;;;-143.89;37.08
21359;BME280;13506;50.852;20.632;2024-03-23T10:33:07;58905.97;;;-143.89;35.39
21359;BME280;13506;50.852;20.632;2024-03-23T10:35:36;58923.78;;;-143.89;35.00
21359;BME280;13506;50.852;20.632;2024-03-23T10:38:06;58927.75;;;-143.89;34.79
21359;BME280;13506;50.852;20.632;2024-03-23T10:40:36;58882.19;;;-143.89;34.23
21359;BME280;13506;50.852;20.632;2024-03-23T10:43:04;58880.22;;;-143.89;33.71
21359;BME280;13506;50.852;20.632;2024-03-23T10:45:34;58894.09;;;-143.89;34.25
21359;BME280;13506;50.852;20.632;2024-03-23T10:48:02;58868.34;;;-143.89;33.94
21359;BME280;13506;50.852;20.632;2024-03-23T10:50:30;58876.25;;;-143.89;34.32
21359;BME280;13506;50.852;20.632;2024-03-23T10:52:59;58882.19;;;-143.89;34.41
21359;BME280;13506;50.852;20.632;2024-03-23T10:55:27;58890.13;;;-143.89;34.43
21359;BME280;13506;50.852;20.632;2024-03-23T10:57:58;58923.78;;;-143.89;34.83
21359;BME280;13506;50.852;20.632;2024-03-23T11:00:27;58900.03;;;-143.89;35.68
21359;BME280;13506;50.852;20.632;2024-03-23T11:02:54;58900.03;;;-143.89;35.29
21359;BME280;13506;50.852;20.632;2024-03-23T11:05:29;58909.91;;;-143.89;34.67
21359;BME280;13506;50.852;20.632;2024-03-23T11:07:56;58900.03;;;-143.89;33.34
21359;BME280;13506;50.852;20.632;2024-03-23T11:10:28;58880.22;;;-143.89;32.42
21359;BME280;13506;50.852;20.632;2024-03-23T11:12:58;58884.19;;;-143.89;31.78
21359;BME280;13506;50.852;20.632;2024-03-23T11:15:26;58880.22;;;-143.89;31.50
21359;BME280;13506;50.852;20.632;2024-03-23T11:18:03;58900.03;;;-143.89;31.61
21359;BME280;13506;50.852;20.632;2024-03-23T11:20:35;58892.09;;;-143.89;31.71
21359;BME280;13506;50.852;20.632;2024-03-23T11:23:02;58846.56;;;-143.89;31.64
21359;BME280;13506;50.852;20.632;2024-03-23T11:25:30;58880.22;;;-143.89;31.66
21359;BME280;13506;50.852;20.632;2024-03-23T11:28:10;58868.34;;;-143.89;31.64
21359;BME280;13506;50.852;20.632;2024-03-23T11:30:38;58892.09;;;-143.89;31.27
21359;BME280;13506;50.852;20.632;2024-03-23T11:33:06;58856.47;;;-143.89;31.48
21359;BME280;13506;50.852;20.632;2024-03-23T11:35:36;58852.50;;;-143.89;31.49
21359;BME280;13506;50.852;20.632;2024-03-23T11:38:05;58884.19;;;-143.89;31.13
21359;BME280;13506;50.852;20.632;2024-03-23T11:40:34;58842.59;;;-143.89;30.94
21359;BME280;13506;50.852;20.632;2024-03-23T11:43:03;58860.41;;;-143.89;31.38
21359;BME280;13506;50.852;20.632;2024-03-23T11:45:36;58884.19;;;-143.89;31.38
21359;BME280;13506;50.852;20.632;2024-03-23T11:48:05;58882.19;;;-143.89;31.33
21359;BME280;13506;50.852;20.632;2024-03-23T11:50:36;58862.41;;;-143.89;31.29
21359;BME280;13506;50.852;20.632;2024-03-23T11:53:17;58850.53;;;-143.89;31.26
21359;BME280;13506;50.852;20.632;2024-03-23T11:55:49;58888.13;;;-143.89;31.20
21359;BME280;13506;50.852;20.632;2024-03-23T11:58:19;58880.22;;;-143.89;31.26
21359;BME280;13506;50.852;20.632;2024-03-23T12:00:52;58884.19;;;-143.89;31.89
21359;BME280;13506;50.852;20.632;2024-03-23T12:03:20;58876.25;;;-143.89;31.83
21359;BME280;13506;50.852;20.632;2024-03-23T12:05:53;58892.09;;;-143.89;31.76
21359;BME280;13506;50.852;20.632;2024-03-23T12:08:22;58888.13;;;-143.89;31.72
21359;BME280;13506;50.852;20.632;2024-03-23T12:10:51;58888.13;;;-143.89;31.92
21359;BME280;13506;50.852;20.632;2024-03-23T12:13:21;58911.91;;;-143.89;32.60
21359;BME280;13506;50.852;20.632;2024-03-23T12:15:51;58884.19;;;-143.89;32.55
21359;BME280;13506;50.852;20.632;2024-03-23T12:18:23;58933.69;;;-143.89;32.58
21359;BME280;13506;50.852;20.632;2024-03-23T12:20:52;58874.28;;;-143.89;32.56
21359;BME280;13506;50.852;20.632;2024-03-23T12:23:19;58915.84;;;-143.89;31.96
21359;BME280;13506;50.852;20.632;2024-03-23T12:25:49;58890.13;;;-143.89;32.39
21359;BME280;13506;50.852;20.632;2024-03-23T12:28:16;58890.13;;;-143.89;32.71
21359;BME280;13506;50.852;20.632;2024-03-23T12:30:46;58903.97;;;-143.89;32.35
21359;BME280;13506;50.852;20.632;2024-03-23T12:33:13;58907.94;;;-143.89;32.48
21359;BME280;13506;50.852;20.632;2024-03-23T12:35:41;58890.13;;;-143.89;32.44
21359;BME280;13506;50.852;20.632;2024-03-23T12:38:08;58876.25;;;-143.89;31.87
21359;BME280;13506;50.852;20.632;2024-03-23T12:40:36;58862.41;;;-143.89;31.82
21359;BME280;13506;50.852;20.632;2024-03-23T12:43:03;58919.81;;;-143.89;32.34
21359;BME280;13506;50.852;20.632;2024-03-23T12:45:31;58860.41;;;-143.89;31.86
21359;BME280;13506;50.852;20.632;2024-03-23T12:48:00;58860.41;;;-143.89;31.88
21359;BME280;13506;50.852;20.632;2024-03-23T12:50:28;58864.38;;;-143.89;31.71
21359;BME280;13506;50.852;20.632;2024-03-23T12:52:55;58911.91;;;-143.89;32.05
21359;BME280;13506;50.852;20.632;2024-03-23T12:55:22;58860.41;;;-143.89;32.04
21359;BME280;13506;50.852;20.632;2024-03-23T12:57:50;58884.19;;;-143.89;31.33
21359;BME280;13506;50.852;20.632;2024-03-23T13:00:18;58880.22;;;-143.89;31.24
21359;BME280;13506;50.852;20.632;2024-03-23T13:02:45;58868.34;;;-143.89;31.16
21359;BME280;13506;50.852;20.632;2024-03-23T13:05:14;58900.03;;;-143.89;31.70
21359;BME280;13506;50.852;20.632;2024-03-23T13:07:42;58892.09;;;-143.89;31.30
21359;BME280;13506;50.852;20.632;2024-03-23T13:10:09;58903.97;;;-143.89;30.87
21359;BME280;13506;50.852;20.632;2024-03-23T13:12:37;58888.13;;;-143.89;30.32
21359;BME280;13506;50.852;20.632;2024-03-23T13:15:06;58858.44;;;-143.89;30.44
21359;BME280;13506;50.852;20.632;2024-03-23T13:17:33;58858.44;;;-143.89;30.33
21359;BME280;13506;50.852;20.632;2024-03-23T13:20:01;58864.38;;;-143.89;30.02
21359;BME280;13506;50.852;20.632;2024-03-23T13:22:31;58878.25;;;-143.89;29.99
21359;BME280;13506;50.852;20.632;2024-03-23T13:24:59;58892.09;;;-143.89;30.26
21359;BME280;13506;50.852;20.632;2024-03-23T13:27:27;58860.41;;;-143.89;29.90
21359;BME280;13506;50.852;20.632;2024-03-23T13:29:54;58860.41;;;-143.89;29.59